createdAt,value
2018-07-19T00:02:04.403Z,19.20
2018-07-19T00:04:32.877Z,19.20
2018-07-19T00:07:01.413Z,19.10
2018-07-19T00:09:29.916Z,19.20
2018-07-19T00:11:58.496Z,19.20
2018-07-19T00:14:26.975Z,19.20
2018-07-19T00:16:55.828Z,19.10
2018-07-19T00:19:24.442Z,19.10
2018-07-19T00:21:52.934Z,19.10
2018-07-19T00:24:21.547Z,19.00
2018-07-19T00:26:50.107Z,18.90
2018-07-19T00:29:18.606Z,18.90
2018-07-19T00:31:47.110Z,18.90
2018-07-19T00:34:15.685Z,18.80
2018-07-19T00:36:44.178Z,18.80
2018-07-19T00:39:12.764Z,18.90
2018-07-19T00:41:45.012Z,18.90
2018-07-19T00:44:14.950Z,18.90
2018-07-19T00:46:43.756Z,18.80
2018-07-19T00:49:12.284Z,18.80
2018-07-19T00:51:40.907Z,18.80
2018-07-19T00:54:09.472Z,18.80
2018-07-19T00:56:37.991Z,18.70
2018-07-19T00:59:06.558Z,18.70
2018-07-19T01:01:35.092Z,18.70
2018-07-19T01:04:03.763Z,18.70
2018-07-19T01:06:32.262Z,18.60
2018-07-19T01:09:00.776Z,18.60
2018-07-19T01:11:29.393Z,18.60
2018-07-19T01:13:58.871Z,18.60
2018-07-19T01:16:27.482Z,18.50
2018-07-19T01:21:24.289Z,18.60
2018-07-19T01:23:52.781Z,18.50
2018-07-19T01:26:21.359Z,18.50
2018-07-19T01:28:49.847Z,18.50
2018-07-19T01:31:18.411Z,18.50
2018-07-19T01:33:46.957Z,18.40
2018-07-19T01:36:15.457Z,18.40
2018-07-19T01:41:24.374Z,18.30
2018-07-19T01:43:53.126Z,18.30
2018-07-19T01:46:21.588Z,18.20
2018-07-19T01:48:50.066Z,18.20
2018-07-19T01:51:18.552Z,18.10
2018-07-19T01:53:47.070Z,18.10
2018-07-19T01:56:15.524Z,18.10
2018-07-19T02:03:40.500Z,18.00
2018-07-19T02:06:09.028Z,18.00
2018-07-19T02:08:37.586Z,18.00
2018-07-19T02:11:06.248Z,17.90
2018-07-19T02:13:34.866Z,17.90
2018-07-19T02:16:03.360Z,17.90
2018-07-19T02:18:31.838Z,17.90
2018-07-19T02:21:00.388Z,17.80
2018-07-19T02:23:28.849Z,17.70
2018-07-19T02:25:57.466Z,17.70
2018-07-19T02:30:54.190Z,17.70
2018-07-19T02:33:23.627Z,17.70
2018-07-19T02:35:52.129Z,17.70
2018-07-19T02:40:48.927Z,17.60
2018-07-19T02:43:17.395Z,17.50
2018-07-19T02:45:45.999Z,17.50
2018-07-19T02:48:14.561Z,17.30
2018-07-19T02:50:43.137Z,17.30
2018-07-19T02:55:39.941Z,17.20
2018-07-19T02:58:08.531Z,17.20
2018-07-19T03:00:37.059Z,17.10
2018-07-19T03:03:05.631Z,17.10
2018-07-19T03:05:34.291Z,17.10
2018-07-19T03:08:02.878Z,17.10
2018-07-19T03:10:31.471Z,17.10
2018-07-19T03:12:59.927Z,17.10
2018-07-19T03:15:28.462Z,17.10
2018-07-19T03:17:56.924Z,17.00
2018-07-19T03:20:25.462Z,16.90
2018-07-19T03:22:53.998Z,16.90
2018-07-19T03:25:23.177Z,16.90
2018-07-19T03:27:58.046Z,16.90
2018-07-19T03:30:26.650Z,16.90
2018-07-19T03:32:55.179Z,16.80
2018-07-19T03:35:23.853Z,16.80
2018-07-19T03:37:52.306Z,16.90
2018-07-19T03:40:20.972Z,16.90
2018-07-19T03:42:49.536Z,16.90
2018-07-19T03:45:18.042Z,16.90
2018-07-19T03:47:46.633Z,16.90
2018-07-19T03:50:15.336Z,16.90
2018-07-19T03:52:43.912Z,16.80
2018-07-19T03:55:12.704Z,16.70
2018-07-19T03:57:41.220Z,16.70
2018-07-19T04:00:09.983Z,16.70
2018-07-19T04:02:38.546Z,16.70
2018-07-19T04:05:07.159Z,16.70
2018-07-19T04:07:35.578Z,16.70
2018-07-19T04:10:04.539Z,16.70
2018-07-19T04:12:33.049Z,16.80
2018-07-19T04:15:01.588Z,16.80
2018-07-19T04:17:30.199Z,16.90
2018-07-19T04:19:58.647Z,17.00
2018-07-19T04:24:55.597Z,17.00
2018-07-19T04:27:24.159Z,17.00
2018-07-19T04:29:52.711Z,17.00
2018-07-19T04:32:21.248Z,17.10
2018-07-19T04:34:49.716Z,17.10
2018-07-19T04:37:18.238Z,17.10
2018-07-19T04:39:46.978Z,17.10
2018-07-19T04:42:15.518Z,17.10
2018-07-19T04:44:44.006Z,17.20
2018-07-19T04:47:12.518Z,17.30
2018-07-19T04:49:41.032Z,17.30
2018-07-19T04:52:09.525Z,17.40
2018-07-19T04:54:38.108Z,17.50
2018-07-19T04:57:06.571Z,17.60
2018-07-19T04:59:35.066Z,17.70
2018-07-19T05:02:03.704Z,17.70
2018-07-19T05:04:32.156Z,17.70
2018-07-19T05:07:00.736Z,17.70
2018-07-19T05:09:29.363Z,17.80
2018-07-19T05:11:57.918Z,17.80
2018-07-19T05:14:26.421Z,17.70
2018-07-19T05:16:55.697Z,17.80
2018-07-19T05:19:24.282Z,17.90
2018-07-19T05:21:52.799Z,17.90
2018-07-19T05:24:21.329Z,18.00
2018-07-19T05:26:49.857Z,18.20
2018-07-19T05:29:18.432Z,18.30
2018-07-19T05:31:46.974Z,18.30
2018-07-19T05:34:15.493Z,18.40
2018-07-19T05:36:44.009Z,18.50
2018-07-19T05:39:13.806Z,18.60
2018-07-19T05:41:42.811Z,18.70
2018-07-19T05:44:12.124Z,18.80
2018-07-19T05:46:40.667Z,18.90
2018-07-19T05:49:09.494Z,19.00
2018-07-19T05:51:37.908Z,19.10
2018-07-19T05:54:06.973Z,19.20
2018-07-19T05:56:35.648Z,19.30
2018-07-19T05:59:04.252Z,19.30
2018-07-19T06:01:32.940Z,19.30
2018-07-19T06:04:01.529Z,19.40
2018-07-19T06:06:30.042Z,19.40
2018-07-19T06:08:58.553Z,19.50
2018-07-19T06:11:27.109Z,19.40
2018-07-19T06:13:55.604Z,19.40
2018-07-19T06:16:24.171Z,19.50
2018-07-19T06:18:52.675Z,19.50
2018-07-19T06:21:21.208Z,19.60
2018-07-19T06:23:49.673Z,19.70
2018-07-19T06:26:18.195Z,19.70
2018-07-19T06:28:46.668Z,19.80
2018-07-19T06:31:15.194Z,19.80
2018-07-19T06:33:43.747Z,19.90
2018-07-19T06:36:12.252Z,19.90
2018-07-19T06:38:40.951Z,20.00
2018-07-19T06:41:09.562Z,20.10
2018-07-19T06:43:37.984Z,20.20
2018-07-19T06:46:06.939Z,20.30
2018-07-19T06:48:35.429Z,20.40
2018-07-19T06:51:04.103Z,20.50
2018-07-19T06:53:33.528Z,20.50
2018-07-19T06:56:02.094Z,20.60
2018-07-19T06:58:30.641Z,20.60
2018-07-19T07:00:59.139Z,20.70
2018-07-19T07:03:27.824Z,20.80
2018-07-19T07:05:56.446Z,20.90
2018-07-19T07:08:24.961Z,21.00
2018-07-19T07:10:53.485Z,21.10
2018-07-19T07:13:22.104Z,21.10
2018-07-19T07:15:50.629Z,21.30
2018-07-19T07:18:19.127Z,21.30
2018-07-19T07:20:48.881Z,21.30
2018-07-19T07:23:17.460Z,21.20
2018-07-19T07:25:54.333Z,21.20
2018-07-19T07:28:24.169Z,21.10
2018-07-19T07:30:52.668Z,21.20
2018-07-19T07:33:21.233Z,21.30
2018-07-19T07:35:50.106Z,21.40
2018-07-19T07:38:19.443Z,21.50
2018-07-19T07:40:48.746Z,21.60
2018-07-19T07:43:17.263Z,21.60
2018-07-19T07:45:45.912Z,21.70
2018-07-19T07:48:14.453Z,21.80
2018-07-19T07:50:42.941Z,21.90
2018-07-19T07:53:11.521Z,22.00
2018-07-19T07:55:40.172Z,22.00
2018-07-19T07:58:08.722Z,22.20
2018-07-19T08:00:37.210Z,22.20
2018-07-19T08:03:05.728Z,22.40
2018-07-19T08:05:34.414Z,22.50
2018-07-19T08:08:03.004Z,22.60
2018-07-19T08:10:31.527Z,22.70
2018-07-19T08:13:01.098Z,22.70
2018-07-19T08:15:29.653Z,22.70
2018-07-19T08:17:58.349Z,22.80
2018-07-19T08:20:26.961Z,22.80
2018-07-19T08:22:55.462Z,23.00
2018-07-19T08:25:23.997Z,23.20
2018-07-19T08:27:52.470Z,23.30
2018-07-19T08:30:21.035Z,23.40
2018-07-19T08:32:49.599Z,23.30
2018-07-19T08:35:18.077Z,23.30
2018-07-19T08:37:46.900Z,23.40
2018-07-19T08:40:15.380Z,23.40
2018-07-19T08:42:43.930Z,23.50
2018-07-19T08:45:12.443Z,23.70
2018-07-19T08:47:41.020Z,23.80
2018-07-19T08:50:09.609Z,23.80
2018-07-19T08:52:38.090Z,23.80
2018-07-19T08:55:06.775Z,23.70
2018-07-19T08:57:35.239Z,23.70
2018-07-19T09:00:03.846Z,23.70
2018-07-19T09:02:32.381Z,23.90
2018-07-19T09:05:00.930Z,24.10
2018-07-19T09:07:29.470Z,24.30
2018-07-19T09:09:58.112Z,24.40
2018-07-19T09:12:26.778Z,24.50
2018-07-19T09:14:55.260Z,24.60
2018-07-19T09:17:23.874Z,24.80
2018-07-19T09:19:52.751Z,24.80
2018-07-19T09:22:21.880Z,24.70
2018-07-19T09:24:50.384Z,24.80
2018-07-19T09:27:20.578Z,24.90
2018-07-19T09:29:49.053Z,24.90
2018-07-19T09:32:17.555Z,24.90
2018-07-19T09:34:46.138Z,24.90
2018-07-19T09:37:14.639Z,25.10
2018-07-19T09:39:43.082Z,25.20
2018-07-19T09:42:11.584Z,25.40
2018-07-19T09:44:40.090Z,25.40
2018-07-19T09:47:08.603Z,25.50
2018-07-19T09:52:05.411Z,25.70
2018-07-19T09:54:45.395Z,25.70
2018-07-19T09:57:13.874Z,25.80
2018-07-19T09:59:42.405Z,26.00
2018-07-19T10:04:39.308Z,25.80
2018-07-19T10:07:07.815Z,25.80
2018-07-19T10:09:36.414Z,25.90
2018-07-19T10:12:05.013Z,26.00
2018-07-19T10:14:33.552Z,26.10
2018-07-19T10:17:02.248Z,26.20
2018-07-19T10:19:30.923Z,26.30
2018-07-19T10:21:59.931Z,26.40
2018-07-19T10:24:28.538Z,26.50
2018-07-19T10:26:57.229Z,26.60
2018-07-19T10:29:26.414Z,26.80
2018-07-19T10:31:54.945Z,26.80
2018-07-19T10:34:23.656Z,26.80
2018-07-19T10:36:52.257Z,26.80
2018-07-19T10:39:20.780Z,26.90
2018-07-19T10:41:49.472Z,27.00
2018-07-19T10:44:18.051Z,27.00
2018-07-19T10:46:46.570Z,27.00
2018-07-19T10:49:15.208Z,27.00
2018-07-19T10:51:44.727Z,26.90
2018-07-19T10:54:13.230Z,26.90
2018-07-19T10:56:41.782Z,26.90
2018-07-19T11:01:38.554Z,27.00
2018-07-19T11:04:07.054Z,27.00
2018-07-19T11:06:35.633Z,27.00
2018-07-19T11:09:06.089Z,27.00
2018-07-19T11:11:34.661Z,27.00
2018-07-19T11:14:03.229Z,27.10
2018-07-19T11:16:31.761Z,27.20
2018-07-19T11:19:00.235Z,27.30
2018-07-19T11:21:28.697Z,27.50
2018-07-19T11:23:57.206Z,27.60
2018-07-19T11:26:25.796Z,27.50
2018-07-19T11:28:54.292Z,27.40
2018-07-19T11:31:22.770Z,27.40
2018-07-19T11:33:51.323Z,27.40
2018-07-19T11:36:19.810Z,27.40
2018-07-19T11:41:16.607Z,27.50
2018-07-19T11:43:45.106Z,27.60
2018-07-19T11:46:13.597Z,27.70
2018-07-19T11:48:42.148Z,27.80
2018-07-19T11:53:38.805Z,27.80
2018-07-19T11:56:08.270Z,27.90
2018-07-19T11:58:36.755Z,27.70
2018-07-19T12:01:05.278Z,27.70
2018-07-19T12:06:01.977Z,27.60
2018-07-19T12:08:31.046Z,27.50
2018-07-19T12:10:59.597Z,27.50
2018-07-19T12:13:28.302Z,27.60
2018-07-19T12:15:56.844Z,27.80
2018-07-19T12:18:25.412Z,27.80
2018-07-19T12:20:53.960Z,27.80
2018-07-19T12:23:23.095Z,27.80
2018-07-19T12:25:52.218Z,27.90
2018-07-19T12:28:20.697Z,28.00
2018-07-19T12:30:49.275Z,27.80
2018-07-19T12:33:17.745Z,27.60
2018-07-19T12:35:46.367Z,27.60
2018-07-19T12:38:14.949Z,27.70
2018-07-19T12:40:44.158Z,27.80
2018-07-19T12:43:12.711Z,27.80
2018-07-19T12:45:41.243Z,28.00
2018-07-19T12:48:10.219Z,28.00
2018-07-19T12:50:38.805Z,28.10
2018-07-19T12:53:07.342Z,27.90
2018-07-19T12:55:35.843Z,27.90
2018-07-19T13:00:32.608Z,28.00
2018-07-19T13:05:29.487Z,27.90
2018-07-19T13:07:58.106Z,27.80
2018-07-19T13:10:26.691Z,27.80
2018-07-19T13:12:55.519Z,27.70
2018-07-19T13:15:24.943Z,27.80
2018-07-19T13:17:53.479Z,27.90
2018-07-19T13:20:22.063Z,28.00
2018-07-19T13:22:50.640Z,28.10
2018-07-19T13:27:47.288Z,28.10
2018-07-19T13:30:15.863Z,28.20
2018-07-19T13:32:44.473Z,28.20
2018-07-19T13:35:13.092Z,28.20
2018-07-19T13:37:41.626Z,27.90
2018-07-19T13:40:10.160Z,27.70
2018-07-19T13:42:38.657Z,27.70
2018-07-19T13:45:07.348Z,27.90
2018-07-19T13:47:35.810Z,28.00
2018-07-19T13:50:04.838Z,28.10
2018-07-19T13:52:44.660Z,28.20
2018-07-19T13:55:13.232Z,28.30
2018-07-19T14:00:09.956Z,28.30
2018-07-19T14:02:38.471Z,28.20
2018-07-19T14:05:07.402Z,28.20
2018-07-19T14:07:35.883Z,28.20
2018-07-19T14:10:04.950Z,28.20
2018-07-19T14:12:33.500Z,28.20
2018-07-19T14:15:02.835Z,28.20
2018-07-19T14:19:59.493Z,28.30
2018-07-19T14:22:28.017Z,28.30
2018-07-19T14:24:56.469Z,28.20
2018-07-19T14:27:24.954Z,28.20
2018-07-19T14:32:21.757Z,28.20
2018-07-19T14:34:50.351Z,28.20
2018-07-19T14:37:25.465Z,28.20
2018-07-19T14:39:54.121Z,28.10
2018-07-19T14:42:22.865Z,27.90
2018-07-19T14:44:51.361Z,27.90
2018-07-19T14:47:20.139Z,27.90
2018-07-19T14:49:48.637Z,27.90
2018-07-19T14:52:17.175Z,27.90
2018-07-19T14:54:45.811Z,28.00
2018-07-19T14:57:14.344Z,28.00
2018-07-19T14:59:43.083Z,27.90
2018-07-19T15:02:11.876Z,27.90
2018-07-19T15:04:40.644Z,27.90
2018-07-19T15:07:09.234Z,27.90
2018-07-19T15:12:06.259Z,27.90
2018-07-19T15:14:34.771Z,27.90
2018-07-19T15:17:03.376Z,27.90
2018-07-19T15:19:31.973Z,27.90
2018-07-19T15:22:00.555Z,28.00
2018-07-19T15:24:29.046Z,28.00
2018-07-19T15:26:57.825Z,28.00
2018-07-19T15:29:26.338Z,28.00
2018-07-19T15:31:55.137Z,28.00
2018-07-19T15:34:23.703Z,28.00
2018-07-19T15:36:52.213Z,28.00
2018-07-19T15:39:20.799Z,27.90
2018-07-19T15:41:49.373Z,27.90
2018-07-19T15:46:46.303Z,27.80
2018-07-19T15:49:15.147Z,27.80
2018-07-19T15:51:43.732Z,27.80
2018-07-19T15:54:12.323Z,27.70
2018-07-19T15:56:40.934Z,27.70
2018-07-19T15:59:09.467Z,27.70
2018-07-19T16:04:06.453Z,27.70
2018-07-19T16:06:35.176Z,27.60
2018-07-19T16:09:06.803Z,27.60
2018-07-19T16:11:35.363Z,27.50
2018-07-19T16:14:03.901Z,27.40
2018-07-19T16:16:32.455Z,27.40
2018-07-19T16:21:29.148Z,27.30
2018-07-19T16:23:57.712Z,27.30
2018-07-19T16:26:26.260Z,27.30
2018-07-19T16:28:54.732Z,27.30
2018-07-19T16:31:48.129Z,27.30
2018-07-19T16:36:44.824Z,27.30
2018-07-19T16:39:13.415Z,27.30
2018-07-19T16:41:41.971Z,27.30
2018-07-19T16:46:38.607Z,27.20
2018-07-19T16:49:07.455Z,27.20
2018-07-19T16:51:36.832Z,27.10
2018-07-19T16:54:05.332Z,27.00
2018-07-19T16:56:34.228Z,26.90
2018-07-19T16:59:02.832Z,26.80
2018-07-19T17:01:31.486Z,26.70
2018-07-19T17:06:28.738Z,26.70
2018-07-19T17:08:57.390Z,26.70
2018-07-19T17:11:25.978Z,26.60
2018-07-19T17:13:54.509Z,26.60
2018-07-19T17:16:23.059Z,26.60
2018-07-19T17:18:51.591Z,26.60
2018-07-19T17:21:20.096Z,26.60
2018-07-19T17:23:48.609Z,26.60
2018-07-19T17:26:17.147Z,26.60
2018-07-19T17:28:45.687Z,26.50
2018-07-19T17:31:14.155Z,26.50
2018-07-19T17:33:42.759Z,26.50
2018-07-19T17:36:11.275Z,26.50
2018-07-19T17:38:39.776Z,26.50
2018-07-19T17:41:08.318Z,26.40
2018-07-19T17:43:36.819Z,26.40
2018-07-19T17:46:05.700Z,26.30
2018-07-19T17:48:34.172Z,26.30
2018-07-19T17:51:02.770Z,26.20
2018-07-19T17:53:31.336Z,26.20
2018-07-19T17:55:59.930Z,26.20
2018-07-19T17:58:28.542Z,26.10
2018-07-19T18:00:57.121Z,26.10
2018-07-19T18:03:25.703Z,26.10
2018-07-19T18:05:54.502Z,26.10
2018-07-19T18:08:23.112Z,26.10
2018-07-19T18:10:51.652Z,26.00
2018-07-19T18:15:48.596Z,25.80
2018-07-19T18:18:18.667Z,25.70
2018-07-19T18:20:47.649Z,25.70
2018-07-19T18:23:17.082Z,25.70
2018-07-19T18:25:46.374Z,25.70
2018-07-19T18:28:15.710Z,25.60
2018-07-19T18:30:44.476Z,25.60
2018-07-19T18:33:13.032Z,25.50
2018-07-19T18:40:38.734Z,25.40
2018-07-19T18:43:07.553Z,25.40
2018-07-19T18:45:36.369Z,25.30
2018-07-19T18:48:06.125Z,25.30
2018-07-19T18:50:35.016Z,25.20
2018-07-19T18:53:03.576Z,25.10
2018-07-19T18:58:02.075Z,25.00
2018-07-19T19:00:31.714Z,24.90
2018-07-19T19:03:00.689Z,24.80
2018-07-19T19:05:35.073Z,24.70
2018-07-19T19:08:04.448Z,24.70
2018-07-19T19:10:34.364Z,24.60
2018-07-19T19:13:03.365Z,24.50
2018-07-19T19:15:32.414Z,24.50
2018-07-19T19:20:31.997Z,24.30
2018-07-19T19:23:01.888Z,24.20
2018-07-19T19:25:31.132Z,24.20
2018-07-19T19:28:00.842Z,24.10
2018-07-19T19:30:29.668Z,24.10
2018-07-19T19:32:59.561Z,24.00
2018-07-19T19:35:28.636Z,23.90
2018-07-19T19:37:58.145Z,23.90
2018-07-19T19:40:28.081Z,23.80
2018-07-19T19:42:57.021Z,23.80
2018-07-19T19:45:26.076Z,23.80
2018-07-19T19:47:55.157Z,23.60
2018-07-19T19:50:24.154Z,23.50
2018-07-19T19:52:53.358Z,23.40
2018-07-19T19:55:22.305Z,23.30
2018-07-19T19:57:51.234Z,23.20
2018-07-19T20:00:20.449Z,23.20
2018-07-19T20:02:49.312Z,23.10
2018-07-19T20:05:18.615Z,23.00
2018-07-19T20:10:16.312Z,22.80
2018-07-19T20:12:45.210Z,22.70
2018-07-19T20:15:14.741Z,22.60
2018-07-19T20:17:44.938Z,22.60
2018-07-19T20:20:13.654Z,22.50
2018-07-19T20:22:42.609Z,22.30
2018-07-19T20:25:12.365Z,22.20
2018-07-19T20:27:41.669Z,22.20
2018-07-19T20:30:10.480Z,22.10
2018-07-19T20:32:39.160Z,22.00
2018-07-19T20:35:07.822Z,21.90
2018-07-19T20:37:36.543Z,21.90
2018-07-19T20:40:05.077Z,21.90
2018-07-19T20:42:33.611Z,21.90
2018-07-19T20:45:02.216Z,21.90
2018-07-19T20:47:30.884Z,21.90
2018-07-19T20:49:59.728Z,21.80
2018-07-19T20:52:28.274Z,21.80
2018-07-19T20:54:56.947Z,21.70
2018-07-19T20:59:53.703Z,21.70
2018-07-19T21:02:22.336Z,21.60
2018-07-19T21:04:51.026Z,21.50
2018-07-19T21:07:19.792Z,21.50
2018-07-19T21:09:48.586Z,21.50
2018-07-19T21:12:17.275Z,21.40
2018-07-19T21:14:45.786Z,21.50
2018-07-19T21:17:14.289Z,21.40
2018-07-19T21:19:42.835Z,21.40
2018-07-19T21:22:11.325Z,21.40
2018-07-19T21:24:39.829Z,21.30
2018-07-19T21:27:15.148Z,21.20
2018-07-19T21:29:43.739Z,21.20
2018-07-19T21:32:12.322Z,21.10
2018-07-19T21:34:40.917Z,20.90
2018-07-19T21:37:09.411Z,20.80
2018-07-19T21:39:37.872Z,20.80
2018-07-19T21:42:06.676Z,20.80
2018-07-19T21:44:35.918Z,20.80
2018-07-19T21:47:04.372Z,20.80
2018-07-19T21:49:32.855Z,20.70
2018-07-19T21:52:01.315Z,20.70
2018-07-19T21:54:29.891Z,20.60
2018-07-19T22:01:54.769Z,20.50
2018-07-19T22:04:23.974Z,20.40
2018-07-19T22:06:52.468Z,20.40
2018-07-19T22:09:22.543Z,20.30
2018-07-19T22:11:51.947Z,20.30
2018-07-19T22:14:20.478Z,20.20
2018-07-19T22:16:49.005Z,20.20
2018-07-19T22:19:17.761Z,20.10
2018-07-19T22:21:46.107Z,20.10
2018-07-19T22:24:14.641Z,20.10
2018-07-19T22:26:43.170Z,20.10
2018-07-19T22:29:11.663Z,20.00
2018-07-19T22:31:40.166Z,20.00
2018-07-19T22:34:08.762Z,19.90
2018-07-19T22:36:37.263Z,19.90
2018-07-19T22:39:09.103Z,19.80
2018-07-19T22:41:37.759Z,19.80
2018-07-19T22:44:06.389Z,19.80
2018-07-19T22:46:34.921Z,19.80
2018-07-19T22:49:03.460Z,19.80
2018-07-19T22:51:31.976Z,19.70
2018-07-19T22:54:00.455Z,19.70
2018-07-19T22:56:29.001Z,19.60
2018-07-19T22:58:57.914Z,19.60
2018-07-19T23:01:26.502Z,19.60
2018-07-19T23:03:55.072Z,19.60
2018-07-19T23:08:51.839Z,19.50
2018-07-19T23:11:20.340Z,19.50
2018-07-19T23:13:48.861Z,19.50
2018-07-19T23:16:17.533Z,19.50
2018-07-19T23:18:46.419Z,19.40
2018-07-19T23:21:14.921Z,19.30
2018-07-19T23:23:43.400Z,19.20
2018-07-19T23:26:11.974Z,19.20
2018-07-19T23:28:40.815Z,19.00
2018-07-19T23:31:10.395Z,18.80
2018-07-19T23:33:38.998Z,18.80
2018-07-19T23:36:12.891Z,18.80
2018-07-19T23:39:02.041Z,18.80
2018-07-19T23:41:35.992Z,18.80
2018-07-19T23:44:08.662Z,18.80
2018-07-19T23:46:42.503Z,18.80
2018-07-19T23:51:39.296Z,18.60
2018-07-19T23:54:07.782Z,18.60
2018-07-19T23:56:36.558Z,18.60
2018-07-19T23:59:05.063Z,18.60
